sensor_id;sensor_type;location;lat;lon;timestamp;temperature;humidity
51661;DHT22;37741;49.748;8.490;2023-08-07T00:01:47;15.80;78.80
51661;DHT22;37741;49.748;8.490;2023-08-07T00:04:13;15.80;78.80
51661;DHT22;37741;49.748;8.490;2023-08-07T00:06:38;15.80;78.90
51661;DHT22;37741;49.748;8.490;2023-08-07T00:09:04;15.70;78.80
51661;DHT22;37741;49.748;8.490;2023-08-07T00:11:30;15.70;78.80
51661;DHT22;37741;49.748;8.490;2023-08-07T00:13:55;15.70;78.90
51661;DHT22;37741;49.748;8.490;2023-08-07T00:16:21;15.70;79.00
51661;DHT22;37741;49.748;8.490;2023-08-07T00:18:47;15.70;79.00
51661;DHT22;37741;49.748;8.490;2023-08-07T00:21:12;15.70;79.00
51661;DHT22;37741;49.748;8.490;2023-08-07T00:23:38;15.70;79.00
51661;DHT22;37741;49.748;8.490;2023-08-07T00:26:03;15.70;79.00
51661;DHT22;37741;49.748;8.490;2023-08-07T00:28:29;15.60;79.10
51661;DHT22;37741;49.748;8.490;2023-08-07T00:30:56;15.70;79.20
51661;DHT22;37741;49.748;8.490;2023-08-07T00:33:21;15.70;79.30
51661;DHT22;37741;49.748;8.490;2023-08-07T00:35:51;15.70;79.30
51661;DHT22;37741;49.748;8.490;2023-08-07T00:38:16;15.60;79.30
51661;DHT22;37741;49.748;8.490;2023-08-07T00:40:42;15.70;79.40
51661;DHT22;37741;49.748;8.490;2023-08-07T00:43:08;15.60;79.30
51661;DHT22;37741;49.748;8.490;2023-08-07T00:45:36;15.60;79.40
51661;DHT22;37741;49.748;8.490;2023-08-07T00:48:04;15.60;79.40
51661;DHT22;37741;49.748;8.490;2023-08-07T00:50:30;15.60;79.40
51661;DHT22;37741;49.748;8.490;2023-08-07T00:52:55;15.60;79.40
51661;DHT22;37741;49.748;8.490;2023-08-07T00:55:21;15.60;79.40
51661;DHT22;37741;49.748;8.490;2023-08-07T00:57:47;15.60;79.40
51661;DHT22;37741;49.748;8.490;2023-08-07T01:00:14;15.60;79.40
51661;DHT22;37741;49.748;8.490;2023-08-07T01:02:41;15.50;79.30
51661;DHT22;37741;49.748;8.490;2023-08-07T01:05:07;15.50;79.30
51661;DHT22;37741;49.748;8.490;2023-08-07T01:07:32;15.50;79.30
51661;DHT22;37741;49.748;8.490;2023-08-07T01:09:58;15.50;79.30
51661;DHT22;37741;49.748;8.490;2023-08-07T01:12:30;15.50;79.30
51661;DHT22;37741;49.748;8.490;2023-08-07T01:15:14;15.50;79.30
51661;DHT22;37741;49.748;8.490;2023-08-07T01:17:42;15.50;79.30
51661;DHT22;37741;49.748;8.490;2023-08-07T01:20:09;15.50;79.30
51661;DHT22;37741;49.748;8.490;2023-08-07T01:22:36;15.50;79.20
51661;DHT22;37741;49.748;8.490;2023-08-07T01:25:02;15.50;79.20
51661;DHT22;37741;49.748;8.490;2023-08-07T01:27:46;15.50;79.30
51661;DHT22;37741;49.748;8.490;2023-08-07T01:30:30;15.50;79.20
51661;DHT22;37741;49.748;8.490;2023-08-07T01:33:09;15.40;79.00
51661;DHT22;37741;49.748;8.490;2023-08-07T01:35:46;15.40;79.10
51661;DHT22;37741;49.748;8.490;2023-08-07T01:38:13;15.40;79.20
51661;DHT22;37741;49.748;8.490;2023-08-07T01:40:40;15.50;79.10
51661;DHT22;37741;49.748;8.490;2023-08-07T01:43:07;15.50;79.10
51661;DHT22;37741;49.748;8.490;2023-08-07T01:45:33;15.50;78.90
51661;DHT22;37741;49.748;8.490;2023-08-07T01:47:59;15.50;78.80
51661;DHT22;37741;49.748;8.490;2023-08-07T01:50:25;15.50;78.60
51661;DHT22;37741;49.748;8.490;2023-08-07T01:52:51;15.50;78.50
51661;DHT22;37741;49.748;8.490;2023-08-07T01:55:17;15.60;78.50
51661;DHT22;37741;49.748;8.490;2023-08-07T01:57:43;15.60;78.30
51661;DHT22;37741;49.748;8.490;2023-08-07T02:00:10;15.60;78.20
51661;DHT22;37741;49.748;8.490;2023-08-07T02:02:36;15.60;78.10
51661;DHT22;37741;49.748;8.490;2023-08-07T02:05:03;15.60;77.90
51661;DHT22;37741;49.748;8.490;2023-08-07T02:07:29;15.60;77.80
51661;DHT22;37741;49.748;8.490;2023-08-07T02:09:55;15.60;77.80
51661;DHT22;37741;49.748;8.490;2023-08-07T02:12:20;15.60;77.60
51661;DHT22;37741;49.748;8.490;2023-08-07T02:14:46;15.70;78.20
51661;DHT22;37741;49.748;8.490;2023-08-07T02:17:12;15.70;77.40
51661;DHT22;37741;49.748;8.490;2023-08-07T02:19:37;15.70;77.30
51661;DHT22;37741;49.748;8.490;2023-08-07T02:22:03;15.70;77.20
51661;DHT22;37741;49.748;8.490;2023-08-07T02:24:29;15.70;77.00
51661;DHT22;37741;49.748;8.490;2023-08-07T02:26:54;15.70;76.90
51661;DHT22;37741;49.748;8.490;2023-08-07T02:29:20;15.70;76.90
51661;DHT22;37741;49.748;8.490;2023-08-07T02:31:45;15.70;76.80
51661;DHT22;37741;49.748;8.490;2023-08-07T02:34:11;15.70;76.80
51661;DHT22;37741;49.748;8.490;2023-08-07T02:36:37;15.60;76.80
51661;DHT22;37741;49.748;8.490;2023-08-07T02:39:03;15.60;76.70
51661;DHT22;37741;49.748;8.490;2023-08-07T02:41:29;15.60;76.80
51661;DHT22;37741;49.748;8.490;2023-08-07T02:43:56;15.60;76.70
51661;DHT22;37741;49.748;8.490;2023-08-07T02:46:22;15.50;76.70
51661;DHT22;37741;49.748;8.490;2023-08-07T02:48:47;15.50;76.80
51661;DHT22;37741;49.748;8.490;2023-08-07T02:51:13;15.50;77.60
51661;DHT22;37741;49.748;8.490;2023-08-07T02:53:38;15.40;77.00
51661;DHT22;37741;49.748;8.490;2023-08-07T02:56:04;15.40;77.00
51661;DHT22;37741;49.748;8.490;2023-08-07T02:58:30;15.40;77.10
51661;DHT22;37741;49.748;8.490;2023-08-07T03:00:55;15.40;77.20
51661;DHT22;37741;49.748;8.490;2023-08-07T03:03:21;15.40;77.20
51661;DHT22;37741;49.748;8.490;2023-08-07T03:05:51;15.40;77.20
51661;DHT22;37741;49.748;8.490;2023-08-07T03:08:16;15.40;77.20
51661;DHT22;37741;49.748;8.490;2023-08-07T03:10:49;15.30;77.10
51661;DHT22;37741;49.748;8.490;2023-08-07T03:13:14;15.30;77.30
51661;DHT22;37741;49.748;8.490;2023-08-07T03:15:40;15.30;77.30
51661;DHT22;37741;49.748;8.490;2023-08-07T03:18:05;15.30;77.30
51661;DHT22;37741;49.748;8.490;2023-08-07T03:20:31;15.30;77.30
51661;DHT22;37741;49.748;8.490;2023-08-07T03:22:56;15.20;77.20
51661;DHT22;37741;49.748;8.490;2023-08-07T03:25:22;15.20;77.20
51661;DHT22;37741;49.748;8.490;2023-08-07T03:27:48;15.20;77.20
51661;DHT22;37741;49.748;8.490;2023-08-07T03:30:13;15.20;77.30
51661;DHT22;37741;49.748;8.490;2023-08-07T03:32:39;15.20;77.30
51661;DHT22;37741;49.748;8.490;2023-08-07T03:35:07;15.20;77.30
51661;DHT22;37741;49.748;8.490;2023-08-07T03:37:33;15.20;77.30
51661;DHT22;37741;49.748;8.490;2023-08-07T03:39:58;15.20;77.30
51661;DHT22;37741;49.748;8.490;2023-08-07T03:42:24;15.10;77.30
51661;DHT22;37741;49.748;8.490;2023-08-07T03:44:49;15.10;77.20
51661;DHT22;37741;49.748;8.490;2023-08-07T03:47:15;15.10;77.20
51661;DHT22;37741;49.748;8.490;2023-08-07T03:49:40;15.10;77.30
51661;DHT22;37741;49.748;8.490;2023-08-07T03:52:06;15.10;77.20
51661;DHT22;37741;49.748;8.490;2023-08-07T03:54:41;15.10;77.20
51661;DHT22;37741;49.748;8.490;2023-08-07T03:57:13;15.10;77.20
51661;DHT22;37741;49.748;8.490;2023-08-07T03:59:48;15.10;77.30
51661;DHT22;37741;49.748;8.490;2023-08-07T04:02:23;15.10;77.20
51661;DHT22;37741;49.748;8.490;2023-08-07T04:04:51;15.10;77.20
51661;DHT22;37741;49.748;8.490;2023-08-07T04:07:33;15.00;77.20
51661;DHT22;37741;49.748;8.490;2023-08-07T04:10:01;15.10;77.20
51661;DHT22;37741;49.748;8.490;2023-08-07T04:12:30;15.10;77.20
51661;DHT22;37741;49.748;8.490;2023-08-07T04:14:59;15.10;77.30
51661;DHT22;37741;49.748;8.490;2023-08-07T04:17:30;15.00;77.20
51661;DHT22;37741;49.748;8.490;2023-08-07T04:19:57;15.00;77.20
51661;DHT22;37741;49.748;8.490;2023-08-07T04:22:23;15.00;77.20
51661;DHT22;37741;49.748;8.490;2023-08-07T04:24:48;15.00;77.20
51661;DHT22;37741;49.748;8.490;2023-08-07T04:27:20;15.00;77.20
51661;DHT22;37741;49.748;8.490;2023-08-07T04:29:50;15.00;77.20
51661;DHT22;37741;49.748;8.490;2023-08-07T04:32:16;15.00;77.20
51661;DHT22;37741;49.748;8.490;2023-08-07T04:34:47;15.00;77.20
51661;DHT22;37741;49.748;8.490;2023-08-07T04:37:15;14.90;77.00
51661;DHT22;37741;49.748;8.490;2023-08-07T04:39:45;15.00;77.10
51661;DHT22;37741;49.748;8.490;2023-08-07T04:42:14;15.00;77.00
51661;DHT22;37741;49.748;8.490;2023-08-07T04:44:39;15.00;77.00
51661;DHT22;37741;49.748;8.490;2023-08-07T04:47:18;15.00;77.00
51661;DHT22;37741;49.748;8.490;2023-08-07T04:49:49;14.90;77.00
51661;DHT22;37741;49.748;8.490;2023-08-07T04:52:24;14.90;77.00
51661;DHT22;37741;49.748;8.490;2023-08-07T04:55:02;14.90;77.00
51661;DHT22;37741;49.748;8.490;2023-08-07T04:57:30;14.90;77.00
51661;DHT22;37741;49.748;8.490;2023-08-07T05:00:08;14.90;76.70
51661;DHT22;37741;49.748;8.490;2023-08-07T05:03:09;14.90;77.00
51661;DHT22;37741;49.748;8.490;2023-08-07T05:05:35;14.90;77.00
51661;DHT22;37741;49.748;8.490;2023-08-07T05:08:10;14.90;77.00
51661;DHT22;37741;49.748;8.490;2023-08-07T05:10:35;14.90;77.00
51661;DHT22;37741;49.748;8.490;2023-08-07T05:13:25;14.90;77.10
51661;DHT22;37741;49.748;8.490;2023-08-07T05:16:01;14.80;77.00
51661;DHT22;37741;49.748;8.490;2023-08-07T05:18:29;14.80;77.00
51661;DHT22;37741;49.748;8.490;2023-08-07T05:20:57;14.80;77.00
51661;DHT22;37741;49.748;8.490;2023-08-07T05:23:41;14.90;77.00
51661;DHT22;37741;49.748;8.490;2023-08-07T05:26:12;14.80;77.00
51661;DHT22;37741;49.748;8.490;2023-08-07T05:28:40;14.80;77.00
51661;DHT22;37741;49.748;8.490;2023-08-07T05:31:12;14.80;77.10
51661;DHT22;37741;49.748;8.490;2023-08-07T05:33:41;14.90;77.10
51661;DHT22;37741;49.748;8.490;2023-08-07T05:36:07;14.90;77.00
51661;DHT22;37741;49.748;8.490;2023-08-07T05:39:07;14.90;76.90
51661;DHT22;37741;49.748;8.490;2023-08-07T05:41:34;14.90;76.70
51661;DHT22;37741;49.748;8.490;2023-08-07T05:44:05;15.00;76.60
51661;DHT22;37741;49.748;8.490;2023-08-07T05:46:35;15.00;76.40
51661;DHT22;37741;49.748;8.490;2023-08-07T05:49:06;15.00;76.30
51661;DHT22;37741;49.748;8.490;2023-08-07T05:51:57;15.10;76.20
51661;DHT22;37741;49.748;8.490;2023-08-07T05:54:24;15.10;76.10
51661;DHT22;37741;49.748;8.490;2023-08-07T05:57:37;15.10;75.90
51661;DHT22;37741;49.748;8.490;2023-08-07T06:00:12;15.10;75.80
51661;DHT22;37741;49.748;8.490;2023-08-07T06:02:47;15.10;75.70
51661;DHT22;37741;49.748;8.490;2023-08-07T06:05:17;15.10;75.50
51661;DHT22;37741;49.748;8.490;2023-08-07T06:07:43;15.20;75.60
51661;DHT22;37741;49.748;8.490;2023-08-07T06:10:16;15.10;75.50
51661;DHT22;37741;49.748;8.490;2023-08-07T06:12:57;15.20;75.50
51661;DHT22;37741;49.748;8.490;2023-08-07T06:15:41;15.20;75.40
51661;DHT22;37741;49.748;8.490;2023-08-07T06:18:08;15.20;75.30
51661;DHT22;37741;49.748;8.490;2023-08-07T06:20:36;15.20;75.30
51661;DHT22;37741;49.748;8.490;2023-08-07T06:23:07;15.20;75.30
51661;DHT22;37741;49.748;8.490;2023-08-07T06:25:33;15.20;75.30
51661;DHT22;37741;49.748;8.490;2023-08-07T06:28:00;15.20;75.30
51661;DHT22;37741;49.748;8.490;2023-08-07T06:30:34;15.20;75.10
51661;DHT22;37741;49.748;8.490;2023-08-07T06:33:00;15.20;75.30
51661;DHT22;37741;49.748;8.490;2023-08-07T06:35:27;15.10;75.30
51661;DHT22;37741;49.748;8.490;2023-08-07T06:37:52;15.10;75.30
51661;DHT22;37741;49.748;8.490;2023-08-07T06:40:19;15.10;75.50
51661;DHT22;37741;49.748;8.490;2023-08-07T06:42:58;15.10;75.60
51661;DHT22;37741;49.748;8.490;2023-08-07T06:45:29;15.00;75.60
51661;DHT22;37741;49.748;8.490;2023-08-07T06:48:03;15.00;75.70
51661;DHT22;37741;49.748;8.490;2023-08-07T06:50:32;15.00;75.80
51661;DHT22;37741;49.748;8.490;2023-08-07T06:52:58;15.00;75.90
51661;DHT22;37741;49.748;8.490;2023-08-07T06:55:35;15.00;76.00
51661;DHT22;37741;49.748;8.490;2023-08-07T06:58:08;15.00;76.20
51661;DHT22;37741;49.748;8.490;2023-08-07T07:00:45;15.00;76.30
51661;DHT22;37741;49.748;8.490;2023-08-07T07:03:25;15.00;76.40
51661;DHT22;37741;49.748;8.490;2023-08-07T07:06:07;14.90;76.60
51661;DHT22;37741;49.748;8.490;2023-08-07T07:08:46;14.90;76.70
51661;DHT22;37741;49.748;8.490;2023-08-07T07:11:12;14.90;76.90
51661;DHT22;37741;49.748;8.490;2023-08-07T07:13:43;14.90;77.00
51661;DHT22;37741;49.748;8.490;2023-08-07T07:16:10;14.90;77.20
51661;DHT22;37741;49.748;8.490;2023-08-07T07:18:38;14.90;77.30
51661;DHT22;37741;49.748;8.490;2023-08-07T07:21:09;14.90;77.40
51661;DHT22;37741;49.748;8.490;2023-08-07T07:23:35;14.90;77.50
51661;DHT22;37741;49.748;8.490;2023-08-07T07:26:00;14.90;77.60
51661;DHT22;37741;49.748;8.490;2023-08-07T07:28:28;14.90;77.70
51661;DHT22;37741;49.748;8.490;2023-08-07T07:31:00;14.80;77.70
51661;DHT22;37741;49.748;8.490;2023-08-07T07:33:35;14.90;77.90
51661;DHT22;37741;49.748;8.490;2023-08-07T07:36:18;14.80;77.90
51661;DHT22;37741;49.748;8.490;2023-08-07T07:38:48;14.80;78.10
51661;DHT22;37741;49.748;8.490;2023-08-07T07:41:17;14.80;78.20
51661;DHT22;37741;49.748;8.490;2023-08-07T07:43:43;14.80;78.20
51661;DHT22;37741;49.748;8.490;2023-08-07T07:46:11;14.80;78.30
51661;DHT22;37741;49.748;8.490;2023-08-07T07:48:40;14.80;78.50
51661;DHT22;37741;49.748;8.490;2023-08-07T07:51:08;14.80;78.50
51661;DHT22;37741;49.748;8.490;2023-08-07T07:53:34;14.80;78.50
51661;DHT22;37741;49.748;8.490;2023-08-07T07:56:07;14.80;78.60
51661;DHT22;37741;49.748;8.490;2023-08-07T07:58:35;14.80;78.80
51661;DHT22;37741;49.748;8.490;2023-08-07T08:01:01;14.80;78.80
51661;DHT22;37741;49.748;8.490;2023-08-07T08:03:27;14.70;78.80
51661;DHT22;37741;49.748;8.490;2023-08-07T08:05:58;14.80;78.90
51661;DHT22;37741;49.748;8.490;2023-08-07T08:08:30;14.70;79.00
51661;DHT22;37741;49.748;8.490;2023-08-07T08:10:57;14.70;79.10
51661;DHT22;37741;49.748;8.490;2023-08-07T08:13:28;14.70;79.20
51661;DHT22;37741;49.748;8.490;2023-08-07T08:16:12;14.70;79.40
51661;DHT22;37741;49.748;8.490;2023-08-07T08:18:47;14.70;79.70
51661;DHT22;37741;49.748;8.490;2023-08-07T08:21:19;14.70;79.70
51661;DHT22;37741;49.748;8.490;2023-08-07T08:23:51;14.70;79.70
51661;DHT22;37741;49.748;8.490;2023-08-07T08:26:19;14.70;79.80
51661;DHT22;37741;49.748;8.490;2023-08-07T08:28:46;14.70;79.90
51661;DHT22;37741;49.748;8.490;2023-08-07T08:31:12;14.70;80.00
51661;DHT22;37741;49.748;8.490;2023-08-07T08:33:59;14.70;80.10
51661;DHT22;37741;49.748;8.490;2023-08-07T08:37:04;14.70;80.20
51661;DHT22;37741;49.748;8.490;2023-08-07T08:39:33;14.70;80.20
51661;DHT22;37741;49.748;8.490;2023-08-07T08:42:00;14.70;80.30
51661;DHT22;37741;49.748;8.490;2023-08-07T08:44:26;14.70;80.30
51661;DHT22;37741;49.748;8.490;2023-08-07T08:47:00;14.70;80.50
51661;DHT22;37741;49.748;8.490;2023-08-07T08:50:14;14.70;80.40
51661;DHT22;37741;49.748;8.490;2023-08-07T08:52:46;14.70;80.40
51661;DHT22;37741;49.748;8.490;2023-08-07T08:55:13;14.70;80.40
51661;DHT22;37741;49.748;8.490;2023-08-07T08:57:46;14.70;80.50
51661;DHT22;37741;49.748;8.490;2023-08-07T09:00:35;14.70;80.50
51661;DHT22;37741;49.748;8.490;2023-08-07T09:03:01;14.70;80.70
51661;DHT22;37741;49.748;8.490;2023-08-07T09:05:32;14.70;80.90
51661;DHT22;37741;49.748;8.490;2023-08-07T09:08:01;14.70;80.80
51661;DHT22;37741;49.748;8.490;2023-08-07T09:10:35;14.70;80.90
51661;DHT22;37741;49.748;8.490;2023-08-07T09:13:08;14.70;80.90
51661;DHT22;37741;49.748;8.490;2023-08-07T09:15:43;14.70;81.10
51661;DHT22;37741;49.748;8.490;2023-08-07T09:18:24;14.80;81.40
51661;DHT22;37741;49.748;8.490;2023-08-07T09:20:50;14.80;81.20
51661;DHT22;37741;49.748;8.490;2023-08-07T09:23:16;14.80;81.20
51661;DHT22;37741;49.748;8.490;2023-08-07T09:25:42;14.90;81.10
51661;DHT22;37741;49.748;8.490;2023-08-07T09:28:09;14.90;81.10
51661;DHT22;37741;49.748;8.490;2023-08-07T09:30:47;14.90;80.90
51661;DHT22;37741;49.748;8.490;2023-08-07T09:33:14;14.90;80.90
51661;DHT22;37741;49.748;8.490;2023-08-07T09:35:40;14.90;80.80
51661;DHT22;37741;49.748;8.490;2023-08-07T09:38:08;15.00;80.90
51661;DHT22;37741;49.748;8.490;2023-08-07T09:40:44;15.00;80.90
51661;DHT22;37741;49.748;8.490;2023-08-07T09:43:22;15.00;80.90
51661;DHT22;37741;49.748;8.490;2023-08-07T09:46:09;15.10;80.80
51661;DHT22;37741;49.748;8.490;2023-08-07T09:48:42;15.10;80.90
51661;DHT22;37741;49.748;8.490;2023-08-07T09:51:23;15.10;80.70
51661;DHT22;37741;49.748;8.490;2023-08-07T09:53:59;15.10;80.70
51661;DHT22;37741;49.748;8.490;2023-08-07T09:56:28;15.10;80.60
51661;DHT22;37741;49.748;8.490;2023-08-07T09:59:00;15.20;80.60
51661;DHT22;37741;49.748;8.490;2023-08-07T10:01:26;15.20;80.70
51661;DHT22;37741;49.748;8.490;2023-08-07T10:03:58;15.20;80.80
51661;DHT22;37741;49.748;8.490;2023-08-07T10:06:24;15.20;80.80
51661;DHT22;37741;49.748;8.490;2023-08-07T10:09:03;15.20;80.70
51661;DHT22;37741;49.748;8.490;2023-08-07T10:11:31;15.20;80.60
51661;DHT22;37741;49.748;8.490;2023-08-07T10:14:00;15.20;80.50
51661;DHT22;37741;49.748;8.490;2023-08-07T10:16:26;15.20;80.60
51661;DHT22;37741;49.748;8.490;2023-08-07T10:18:55;15.10;80.50
51661;DHT22;37741;49.748;8.490;2023-08-07T10:21:26;15.10;80.60
51661;DHT22;37741;49.748;8.490;2023-08-07T10:23:53;15.10;80.80
51661;DHT22;37741;49.748;8.490;2023-08-07T10:26:25;15.10;80.90
51661;DHT22;37741;49.748;8.490;2023-08-07T10:28:53;15.00;81.00
51661;DHT22;37741;49.748;8.490;2023-08-07T10:31:21;15.00;81.10
51661;DHT22;37741;49.748;8.490;2023-08-07T10:33:50;15.00;81.20
51661;DHT22;37741;49.748;8.490;2023-08-07T10:36:18;14.90;81.30
51661;DHT22;37741;49.748;8.490;2023-08-07T10:38:49;14.90;81.50
51661;DHT22;37741;49.748;8.490;2023-08-07T10:41:21;15.00;81.60
51661;DHT22;37741;49.748;8.490;2023-08-07T10:44:01;14.90;81.70
51661;DHT22;37741;49.748;8.490;2023-08-07T10:46:57;14.90;81.90
51661;DHT22;37741;49.748;8.490;2023-08-07T10:49:48;14.90;81.90
51661;DHT22;37741;49.748;8.490;2023-08-07T10:52:18;14.90;82.10
51661;DHT22;37741;49.748;8.490;2023-08-07T10:55:17;14.90;82.20
51661;DHT22;37741;49.748;8.490;2023-08-07T10:57:56;14.90;82.40
51661;DHT22;37741;49.748;8.490;2023-08-07T11:00:36;14.80;82.50
51661;DHT22;37741;49.748;8.490;2023-08-07T11:03:08;14.90;82.70
51661;DHT22;37741;49.748;8.490;2023-08-07T11:05:49;14.90;82.90
51661;DHT22;37741;49.748;8.490;2023-08-07T11:08:33;14.80;83.10
51661;DHT22;37741;49.748;8.490;2023-08-07T11:11:05;14.90;83.40
51661;DHT22;37741;49.748;8.490;2023-08-07T11:13:38;14.90;83.50
51661;DHT22;37741;49.748;8.490;2023-08-07T11:16:07;14.90;83.50
51661;DHT22;37741;49.748;8.490;2023-08-07T11:18:35;14.90;83.60
51661;DHT22;37741;49.748;8.490;2023-08-07T11:21:12;14.90;83.60
51661;DHT22;37741;49.748;8.490;2023-08-07T11:23:40;14.80;83.70
51661;DHT22;37741;49.748;8.490;2023-08-07T11:26:20;14.90;83.80
51661;DHT22;37741;49.748;8.490;2023-08-07T11:29:18;14.90;83.80
51661;DHT22;37741;49.748;8.490;2023-08-07T11:31:50;14.90;84.00
51661;DHT22;37741;49.748;8.490;2023-08-07T11:34:17;14.90;84.50
51661;DHT22;37741;49.748;8.490;2023-08-07T11:36:52;14.90;85.40
51661;DHT22;37741;49.748;8.490;2023-08-07T11:39:42;14.90;85.20
51661;DHT22;37741;49.748;8.490;2023-08-07T11:42:08;15.00;84.90
51661;DHT22;37741;49.748;8.490;2023-08-07T11:44:40;15.00;84.90
51661;DHT22;37741;49.748;8.490;2023-08-07T11:47:09;15.00;84.80
51661;DHT22;37741;49.748;8.490;2023-08-07T11:49:37;15.00;84.70
51661;DHT22;37741;49.748;8.490;2023-08-07T11:52:05;15.00;85.00
51661;DHT22;37741;49.748;8.490;2023-08-07T11:54:32;15.00;84.70
51661;DHT22;37741;49.748;8.490;2023-08-07T11:57:21;15.00;84.40
51661;DHT22;37741;49.748;8.490;2023-08-07T11:59:53;15.10;84.30
51661;DHT22;37741;49.748;8.490;2023-08-07T12:02:24;15.10;84.30
51661;DHT22;37741;49.748;8.490;2023-08-07T12:04:58;15.10;84.20
51661;DHT22;37741;49.748;8.490;2023-08-07T12:07:32;15.10;84.20
51661;DHT22;37741;49.748;8.490;2023-08-07T12:10:08;15.10;84.00
51661;DHT22;37741;49.748;8.490;2023-08-07T12:12:45;15.10;84.00
51661;DHT22;37741;49.748;8.490;2023-08-07T12:15:11;15.10;83.90
51661;DHT22;37741;49.748;8.490;2023-08-07T12:17:38;15.10;83.90
51661;DHT22;37741;49.748;8.490;2023-08-07T12:20:05;15.10;84.00
51661;DHT22;37741;49.748;8.490;2023-08-07T12:22:37;15.20;84.00
51661;DHT22;37741;49.748;8.490;2023-08-07T12:25:18;15.20;84.00
51661;DHT22;37741;49.748;8.490;2023-08-07T12:27:45;15.20;83.90
51661;DHT22;37741;49.748;8.490;2023-08-07T12:30:21;15.20;83.90
51661;DHT22;37741;49.748;8.490;2023-08-07T12:32:48;15.20;83.90
51661;DHT22;37741;49.748;8.490;2023-08-07T12:35:19;15.20;84.20
51661;DHT22;37741;49.748;8.490;2023-08-07T12:37:47;15.20;84.00
51661;DHT22;37741;49.748;8.490;2023-08-07T12:40:14;15.20;83.90
51661;DHT22;37741;49.748;8.490;2023-08-07T12:42:46;15.20;83.80
51661;DHT22;37741;49.748;8.490;2023-08-07T12:45:15;15.20;83.70
51661;DHT22;37741;49.748;8.490;2023-08-07T12:47:44;15.30;83.80
51661;DHT22;37741;49.748;8.490;2023-08-07T12:50:09;15.30;84.10
51661;DHT22;37741;49.748;8.490;2023-08-07T12:52:38;15.30;84.20
51661;DHT22;37741;49.748;8.490;2023-08-07T12:55:14;15.30;84.60
51661;DHT22;37741;49.748;8.490;2023-08-07T12:57:49;15.40;84.90
51661;DHT22;37741;49.748;8.490;2023-08-07T13:00:32;15.40;84.70
51661;DHT22;37741;49.748;8.490;2023-08-07T13:03:04;15.50;84.40
51661;DHT22;37741;49.748;8.490;2023-08-07T13:05:50;15.50;84.30
51661;DHT22;37741;49.748;8.490;2023-08-07T13:08:17;15.60;84.10
51661;DHT22;37741;49.748;8.490;2023-08-07T13:10:59;15.60;83.90
51661;DHT22;37741;49.748;8.490;2023-08-07T13:13:33;15.70;83.90
51661;DHT22;37741;49.748;8.490;2023-08-07T13:15:58;15.70;83.80
51661;DHT22;37741;49.748;8.490;2023-08-07T13:18:26;15.80;83.90
51661;DHT22;37741;49.748;8.490;2023-08-07T13:20:55;15.80;83.80
51661;DHT22;37741;49.748;8.490;2023-08-07T13:23:26;15.90;83.70
51661;DHT22;37741;49.748;8.490;2023-08-07T13:26:01;15.90;84.00
51661;DHT22;37741;49.748;8.490;2023-08-07T13:28:29;16.00;84.50
51661;DHT22;37741;49.748;8.490;2023-08-07T13:30:56;16.10;84.70
51661;DHT22;37741;49.748;8.490;2023-08-07T13:33:32;16.10;84.20
51661;DHT22;37741;49.748;8.490;2023-08-07T13:36:01;16.20;83.90
51661;DHT22;37741;49.748;8.490;2023-08-07T13:38:48;16.30;83.70
51661;DHT22;37741;49.748;8.490;2023-08-07T13:41:29;16.40;83.50
51661;DHT22;37741;49.748;8.490;2023-08-07T13:43:54;16.40;83.50
51661;DHT22;37741;49.748;8.490;2023-08-07T13:46:24;16.40;83.40
51661;DHT22;37741;49.748;8.490;2023-08-07T13:48:51;16.50;83.20
51661;DHT22;37741;49.748;8.490;2023-08-07T13:51:26;16.50;82.90
51661;DHT22;37741;49.748;8.490;2023-08-07T13:54:04;16.50;82.80
51661;DHT22;37741;49.748;8.490;2023-08-07T13:56:38;16.50;82.30
51661;DHT22;37741;49.748;8.490;2023-08-07T13:59:07;16.50;82.30
51661;DHT22;37741;49.748;8.490;2023-08-07T14:01:37;16.60;82.10
51661;DHT22;37741;49.748;8.490;2023-08-07T14:04:06;16.60;81.90
51661;DHT22;37741;49.748;8.490;2023-08-07T14:06:33;16.60;81.30
51661;DHT22;37741;49.748;8.490;2023-08-07T14:08:59;16.60;81.30
51661;DHT22;37741;49.748;8.490;2023-08-07T14:11:41;16.60;81.40
51661;DHT22;37741;49.748;8.490;2023-08-07T14:14:07;16.60;80.30
51661;DHT22;37741;49.748;8.490;2023-08-07T14:16:34;16.70;78.30
51661;DHT22;37741;49.748;8.490;2023-08-07T14:19:03;16.70;78.00
51661;DHT22;37741;49.748;8.490;2023-08-07T14:21:34;16.70;78.90
51661;DHT22;37741;49.748;8.490;2023-08-07T14:24:15;16.70;78.60
51661;DHT22;37741;49.748;8.490;2023-08-07T14:26:43;16.80;77.80
51661;DHT22;37741;49.748;8.490;2023-08-07T14:29:08;16.80;78.50
51661;DHT22;37741;49.748;8.490;2023-08-07T14:31:41;16.80;77.70
51661;DHT22;37741;49.748;8.490;2023-08-07T14:34:06;16.80;76.30
51661;DHT22;37741;49.748;8.490;2023-08-07T14:36:43;16.90;77.50
51661;DHT22;37741;49.748;8.490;2023-08-07T14:39:14;16.90;76.70
51661;DHT22;37741;49.748;8.490;2023-08-07T14:41:42;16.90;77.00
51661;DHT22;37741;49.748;8.490;2023-08-07T14:44:10;17.00;77.00
51661;DHT22;37741;49.748;8.490;2023-08-07T14:46:53;17.00;77.60
51661;DHT22;37741;49.748;8.490;2023-08-07T14:49:28;17.10;76.10
51661;DHT22;37741;49.748;8.490;2023-08-07T14:51:56;17.10;76.80
51661;DHT22;37741;49.748;8.490;2023-08-07T14:54:26;17.20;76.60
51661;DHT22;37741;49.748;8.490;2023-08-07T14:56:54;17.20;76.70
51661;DHT22;37741;49.748;8.490;2023-08-07T14:59:27;17.30;76.20
51661;DHT22;37741;49.748;8.490;2023-08-07T15:01:54;17.30;74.80
51661;DHT22;37741;49.748;8.490;2023-08-07T15:04:21;17.40;74.40
51661;DHT22;37741;49.748;8.490;2023-08-07T15:06:50;17.40;71.80
51661;DHT22;37741;49.748;8.490;2023-08-07T15:09:16;17.50;68.50
51661;DHT22;37741;49.748;8.490;2023-08-07T15:11:47;17.50;68.00
51661;DHT22;37741;49.748;8.490;2023-08-07T15:14:37;17.60;70.30
51661;DHT22;37741;49.748;8.490;2023-08-07T15:17:07;17.60;68.70
51661;DHT22;37741;49.748;8.490;2023-08-07T15:19:46;17.80;70.00
51661;DHT22;37741;49.748;8.490;2023-08-07T15:22:13;17.90;69.30
51661;DHT22;37741;49.748;8.490;2023-08-07T15:24:39;18.00;70.00
51661;DHT22;37741;49.748;8.490;2023-08-07T15:27:15;18.10;69.30
51661;DHT22;37741;49.748;8.490;2023-08-07T15:32:41;18.30;68.00
51661;DHT22;37741;49.748;8.490;2023-08-07T15:35:24;18.40;67.90
51661;DHT22;37741;49.748;8.490;2023-08-07T15:38:05;18.50;65.50
51661;DHT22;37741;49.748;8.490;2023-08-07T15:40:45;18.50;67.80
51661;DHT22;37741;49.748;8.490;2023-08-07T15:43:20;18.60;65.90
51661;DHT22;37741;49.748;8.490;2023-08-07T15:45:51;18.60;65.70
51661;DHT22;37741;49.748;8.490;2023-08-07T15:48:37;18.70;65.60
51661;DHT22;37741;49.748;8.490;2023-08-07T15:51:06;18.70;64.70
51661;DHT22;37741;49.748;8.490;2023-08-07T15:53:32;18.70;63.70
51661;DHT22;37741;49.748;8.490;2023-08-07T15:55:57;18.80;63.90
51661;DHT22;37741;49.748;8.490;2023-08-07T15:58:24;18.80;64.80